world map with ADU marked

ADU - Airport

This information may not be accurate or current and is not valid for navigation or flight planning. No warranty of fitness for any purpose is made or implied.

flag of Iran

Donate via PayPal

Additional information is available on the NEW Great Circle Mapper

Location
City:  Ardabil, Iran
ICAO / IATA:OITL / ADU

Details
Type:Airport (Aerodrome, Airfield)
Latitude:38°19'32"N (38.325678)
Longitude:48°25'28"E (48.424356)
Datum:WGS 1984
Elevation:4315 ft (1315 m)
Runways:1
Longest:10823 × 148 ft (3299 × 45 m)

Time
Timezone:UTC+3:30 (DST+6:30)
Local Time:

Weather
METAR:OITL  181600Z 21012KT CAVOK 04/M01 Q1019
TAF:OITL  (expired)

Related Locations
Nearby:
Farthest:GMR: 11362 mi / 18286 km
Mangareva [Totegegie], Gambier Islands, PF

Find:

   beyond  
but within

Other Information
Maps:
Links:
Sources:

  


 


Great Circle Mapper   Great Circle Mapper
Great Circle Mapper FAQ   Great Circle Mapper FAQ
  Karl's Home Page
KLSē   KLSē Home
   GC on Facebook
Airlines of the World   Airlines of the World
Donate via PayPal


Copyright © 2004-2014, Karl L. Swartz. All rights reserved.
All trademarks mentioned herein belong to their respective owners.

Please see credits for attribution and copyright information.

Karl Swartz <karl@kls2.com>
  Powered by FreeBSD
Valid HTML 4.01!
Labeled with ICRA
hCard Microformat
Geo Microformat